createdAt,value
2023-05-22T00:01:47.588Z,19.23
2023-05-22T00:04:21.231Z,18.13
2023-05-22T00:06:50.928Z,19.40
2023-05-22T00:09:18.780Z,18.33
2023-05-22T00:11:47.505Z,22.38
2023-05-22T00:14:15.744Z,19.38
2023-05-22T00:16:43.516Z,19.95
2023-05-22T00:19:13.448Z,21.95
2023-05-22T00:21:41.612Z,19.88
2023-05-22T00:24:10.834Z,19.05
2023-05-22T00:26:38.494Z,19.92
2023-05-22T00:29:06.753Z,18.05
2023-05-22T00:31:35.193Z,19.88
2023-05-22T00:34:02.986Z,20.58
2023-05-22T00:36:30.699Z,19.20
2023-05-22T00:38:58.388Z,19.35
2023-05-22T00:41:28.073Z,18.67
2023-05-22T00:43:55.971Z,20.23
2023-05-22T00:46:24.555Z,23.70
2023-05-22T00:48:53.107Z,20.90
2023-05-22T00:51:21.398Z,20.50
2023-05-22T00:53:49.235Z,18.40
2023-05-22T00:56:17.127Z,19.05
2023-05-22T00:58:46.403Z,20.08
2023-05-22T01:01:14.147Z,18.95
2023-05-22T01:03:45.131Z,18.75
2023-05-22T01:06:14.331Z,19.38
2023-05-22T01:08:42.388Z,20.00
2023-05-22T01:11:13.795Z,17.80
2023-05-22T01:13:45.821Z,20.25
2023-05-22T01:16:19.255Z,18.38
2023-05-22T01:18:49.021Z,20.10
2023-05-22T01:21:22.780Z,21.30
2023-05-22T01:24:13.912Z,20.02
2023-05-22T01:26:58.898Z,20.55
2023-05-22T01:29:32.049Z,20.48
2023-05-22T01:32:02.272Z,19.55
2023-05-22T01:34:31.808Z,21.63
2023-05-22T01:37:00.149Z,21.67
2023-05-22T01:39:28.914Z,20.65
2023-05-22T01:41:57.022Z,21.63
2023-05-22T01:44:25.243Z,22.02
2023-05-22T01:46:53.289Z,23.63
2023-05-22T01:49:22.322Z,22.50
2023-05-22T01:51:53.823Z,23.25
2023-05-22T01:54:24.281Z,22.58
2023-05-22T01:56:55.831Z,23.58
2023-05-22T01:59:28.044Z,23.17
2023-05-22T02:01:57.385Z,22.95
2023-05-22T02:04:26.991Z,22.10
2023-05-22T02:06:55.754Z,23.30
2023-05-22T02:09:23.953Z,23.27
2023-05-22T02:11:51.789Z,24.17
2023-05-22T02:14:20.029Z,24.85
2023-05-22T02:16:47.808Z,25.27
2023-05-22T02:19:15.632Z,23.88
2023-05-22T02:21:44.867Z,26.15
2023-05-22T02:24:12.572Z,27.05
2023-05-22T02:26:42.459Z,22.15
2023-05-22T02:29:10.215Z,22.67
2023-05-22T02:31:41.229Z,27.33
2023-05-22T02:34:09.011Z,26.13
2023-05-22T02:36:38.862Z,26.63
2023-05-22T02:39:07.896Z,25.52
2023-05-22T02:41:36.181Z,26.88
2023-05-22T02:44:03.868Z,26.45
2023-05-22T02:46:34.159Z,27.23
2023-05-22T02:49:01.912Z,25.85
2023-05-22T02:51:29.670Z,27.98
2023-05-22T02:53:57.335Z,25.25
2023-05-22T02:56:28.915Z,28.95
2023-05-22T02:58:57.411Z,28.02
2023-05-22T03:01:26.461Z,26.52
2023-05-22T03:03:55.164Z,27.92
2023-05-22T03:06:23.258Z,27.40
2023-05-22T03:08:51.122Z,28.88
2023-05-22T03:11:18.811Z,30.67
2023-05-22T03:13:48.780Z,27.95
2023-05-22T03:18:53.519Z,28.33
2023-05-22T03:21:21.301Z,26.50
2023-05-22T03:23:50.171Z,30.73
2023-05-22T03:26:17.824Z,27.52
2023-05-22T03:28:45.587Z,30.42
2023-05-22T03:31:15.398Z,31.58
2023-05-22T03:33:43.108Z,31.02
2023-05-22T03:36:10.949Z,31.88
2023-05-22T03:38:38.658Z,28.60
2023-05-22T03:41:07.888Z,31.05
2023-05-22T03:43:35.561Z,29.67
2023-05-22T03:46:03.259Z,31.88
2023-05-22T03:48:32.427Z,31.27
2023-05-22T03:51:00.120Z,32.63
2023-05-22T03:53:28.367Z,29.48
2023-05-22T03:55:57.945Z,32.08
2023-05-22T03:58:25.951Z,35.03
2023-05-22T04:00:53.957Z,33.33
2023-05-22T04:03:21.754Z,31.80
2023-05-22T04:05:51.419Z,31.08
2023-05-22T04:08:19.065Z,30.90
2023-05-22T04:10:49.203Z,34.25
2023-05-22T04:13:17.198Z,34.85
2023-05-22T04:15:46.038Z,33.60
2023-05-22T04:18:14.024Z,30.85
2023-05-22T04:20:42.743Z,33.17
2023-05-22T04:23:13.402Z,33.45
2023-05-22T04:25:41.077Z,34.67
2023-05-22T04:28:10.754Z,34.00
2023-05-22T04:30:40.631Z,32.47
2023-05-22T04:33:14.289Z,30.13
2023-05-22T04:35:42.418Z,30.35
2023-05-22T04:38:10.613Z,32.20
2023-05-22T04:40:40.063Z,31.88
2023-05-22T04:43:12.992Z,32.50
2023-05-22T04:45:42.330Z,31.85
2023-05-22T04:48:11.986Z,33.38
2023-05-22T04:50:39.988Z,31.98
2023-05-22T04:53:07.914Z,34.90
2023-05-22T04:55:35.848Z,34.05
2023-05-22T04:58:05.944Z,32.65
2023-05-22T05:00:33.920Z,33.05
2023-05-22T05:03:02.083Z,33.45
2023-05-22T05:05:31.697Z,33.55
2023-05-22T05:07:59.505Z,33.67
2023-05-22T05:10:27.176Z,35.00
2023-05-22T05:12:54.859Z,35.38
2023-05-22T05:15:24.061Z,29.98
2023-05-22T05:17:51.943Z,33.53
2023-05-22T05:20:20.243Z,31.90
2023-05-22T05:22:48.033Z,32.22
2023-05-22T05:25:15.704Z,35.50
2023-05-22T05:27:43.413Z,33.70
2023-05-22T05:30:11.652Z,31.35
2023-05-22T05:32:45.793Z,32.00
2023-05-22T05:35:13.656Z,30.60
2023-05-22T05:37:41.765Z,29.45
2023-05-22T05:40:10.400Z,32.03
2023-05-22T05:42:39.595Z,28.70
2023-05-22T05:45:08.717Z,30.48
2023-05-22T05:47:37.095Z,30.40
2023-05-22T05:50:07.234Z,31.15
2023-05-22T05:52:35.731Z,30.15
2023-05-22T05:55:03.648Z,31.80
2023-05-22T05:57:36.019Z,30.52
2023-05-22T06:00:05.606Z,30.00
2023-05-22T06:02:34.456Z,27.55
2023-05-22T06:05:02.290Z,32.63
2023-05-22T06:07:34.299Z,27.92
2023-05-22T06:10:02.605Z,26.67
2023-05-22T06:12:30.305Z,27.20
2023-05-22T06:14:57.935Z,27.33
2023-05-22T06:17:26.167Z,25.42
2023-05-22T06:19:53.898Z,27.17
2023-05-22T06:22:21.564Z,26.08
2023-05-22T06:24:50.925Z,25.65
2023-05-22T06:27:18.773Z,25.92
2023-05-22T06:29:46.652Z,23.48
2023-05-22T06:32:14.544Z,24.30
2023-05-22T06:34:42.292Z,24.33
2023-05-22T06:37:10.137Z,23.58
2023-05-22T06:39:37.816Z,26.15
2023-05-22T06:42:07.387Z,23.88
2023-05-22T06:44:35.052Z,22.98
2023-05-22T06:47:03.745Z,26.25
2023-05-22T06:49:31.415Z,20.05
2023-05-22T06:51:59.074Z,22.48
2023-05-22T06:54:28.723Z,23.60
2023-05-22T06:56:56.627Z,20.67
2023-05-22T06:59:25.646Z,24.08
2023-05-22T07:01:53.431Z,19.90
2023-05-22T07:04:21.074Z,23.33
2023-05-22T07:06:50.004Z,23.17
2023-05-22T07:09:17.796Z,22.08
2023-05-22T07:11:45.545Z,20.08
2023-05-22T07:14:13.654Z,20.67
2023-05-22T07:16:47.066Z,20.23
2023-05-22T07:19:15.503Z,21.17
2023-05-22T07:21:43.185Z,20.70
2023-05-22T07:24:11.098Z,21.17
2023-05-22T07:26:39.217Z,21.38
2023-05-22T07:29:06.933Z,20.30
2023-05-22T07:31:34.688Z,19.17
2023-05-22T07:34:03.877Z,19.55
2023-05-22T07:36:31.908Z,20.38
2023-05-22T07:38:59.738Z,20.70
2023-05-22T07:41:28.255Z,19.67
2023-05-22T07:43:55.920Z,22.13
2023-05-22T07:46:23.678Z,22.73
2023-05-22T07:48:51.418Z,21.80
2023-05-22T07:51:24.995Z,21.50
2023-05-22T07:53:52.656Z,19.88
2023-05-22T07:56:20.331Z,19.98
2023-05-22T07:58:49.046Z,17.88
2023-05-22T08:01:17.227Z,19.17
2023-05-22T08:03:45.029Z,19.13
2023-05-22T08:06:15.446Z,22.23
2023-05-22T08:08:44.502Z,20.88
2023-05-22T08:11:12.409Z,19.40
2023-05-22T08:13:40.085Z,20.15
2023-05-22T08:16:08.236Z,20.55
2023-05-22T08:18:36.112Z,19.80
2023-05-22T08:21:03.778Z,21.05
2023-05-22T08:23:31.502Z,19.77
2023-05-22T08:26:00.538Z,20.17
2023-05-22T08:28:28.263Z,22.63
2023-05-22T08:30:56.132Z,20.20
2023-05-22T08:33:24.516Z,22.35
2023-05-22T08:35:53.747Z,20.30
2023-05-22T08:38:22.070Z,22.05
2023-05-22T08:40:50.096Z,22.23
2023-05-22T08:43:20.858Z,22.13
2023-05-22T08:45:49.381Z,22.27
2023-05-22T08:48:17.816Z,20.65
2023-05-22T08:50:46.250Z,20.42
2023-05-22T08:53:14.912Z,19.50
2023-05-22T08:55:42.825Z,21.77
2023-05-22T08:58:11.559Z,23.58
2023-05-22T09:00:41.184Z,22.25
2023-05-22T09:03:10.256Z,22.20
2023-05-22T09:05:39.290Z,20.83
2023-05-22T09:08:19.251Z,20.35
2023-05-22T09:10:48.686Z,22.13
2023-05-22T09:13:26.461Z,22.10
2023-05-22T09:15:59.520Z,21.58
2023-05-22T09:18:28.366Z,20.98
2023-05-22T09:20:58.050Z,20.48
2023-05-22T09:23:28.579Z,23.25
2023-05-22T09:25:56.737Z,22.08
2023-05-22T09:28:24.610Z,19.60
2023-05-22T09:30:52.453Z,21.48
2023-05-22T09:33:21.969Z,20.85
2023-05-22T09:35:50.148Z,22.90
2023-05-22T09:38:21.027Z,22.15
2023-05-22T09:40:53.668Z,21.65
2023-05-22T09:43:22.435Z,21.80
2023-05-22T09:45:50.415Z,22.40
2023-05-22T09:48:18.592Z,20.08
2023-05-22T09:50:49.977Z,22.25
2023-05-22T09:53:18.410Z,18.85
2023-05-22T09:55:49.236Z,18.55
2023-05-22T09:58:19.710Z,22.20
2023-05-22T10:00:47.715Z,19.33
2023-05-22T10:03:16.053Z,19.77
2023-05-22T10:05:46.879Z,18.27
2023-05-22T10:08:17.307Z,17.25
2023-05-22T10:10:48.301Z,18.55
2023-05-22T10:13:16.226Z,18.63
2023-05-22T10:15:44.218Z,16.50
2023-05-22T10:18:12.898Z,16.75
2023-05-22T10:20:41.443Z,16.73
2023-05-22T10:23:10.677Z,15.32
2023-05-22T10:25:40.232Z,14.30
2023-05-22T10:28:08.857Z,14.15
2023-05-22T10:30:43.266Z,13.77
2023-05-22T10:33:14.126Z,16.55
2023-05-22T10:35:44.483Z,15.30
2023-05-22T10:38:24.409Z,15.52
2023-05-22T10:40:53.801Z,14.25
2023-05-22T10:43:22.559Z,13.25
2023-05-22T10:45:50.722Z,12.98
2023-05-22T10:48:22.741Z,13.27
2023-05-22T10:50:53.957Z,13.38
2023-05-22T10:53:24.249Z,11.88
2023-05-22T10:55:53.736Z,14.60
2023-05-22T10:58:27.148Z,12.07
2023-05-22T11:01:12.967Z,14.40
2023-05-22T11:03:56.572Z,13.18
2023-05-22T11:06:35.006Z,13.48
2023-05-22T11:09:17.985Z,13.13
2023-05-22T11:11:47.293Z,13.13
2023-05-22T11:14:17.316Z,13.15
2023-05-22T11:16:45.170Z,12.27
2023-05-22T11:21:43.958Z,13.35
2023-05-22T11:24:11.863Z,12.55
2023-05-22T11:26:42.767Z,14.25
2023-05-22T11:29:12.117Z,13.65
2023-05-22T11:31:40.402Z,14.02
2023-05-22T11:34:08.875Z,12.93
2023-05-22T11:36:37.427Z,11.35
2023-05-22T11:39:05.356Z,13.05
2023-05-22T11:41:34.167Z,12.68
2023-05-22T11:44:03.470Z,12.82
2023-05-22T11:46:32.664Z,13.38
2023-05-22T11:49:00.935Z,12.57
2023-05-22T11:51:28.730Z,13.65
2023-05-22T11:53:58.265Z,12.75
2023-05-22T11:56:26.408Z,12.57
2023-05-22T11:58:54.274Z,13.65
2023-05-22T12:01:21.908Z,13.80
2023-05-22T12:03:51.387Z,13.18
2023-05-22T12:06:19.241Z,12.40
2023-05-22T12:08:48.904Z,13.18
2023-05-22T12:11:16.690Z,13.18
2023-05-22T12:13:45.521Z,13.88
2023-05-22T12:16:19.695Z,12.73
2023-05-22T12:18:47.571Z,11.95
2023-05-22T12:21:16.702Z,13.35
2023-05-22T12:23:50.869Z,12.63
2023-05-22T12:26:18.691Z,14.10
2023-05-22T12:28:46.571Z,15.07
2023-05-22T12:31:21.119Z,13.10
2023-05-22T12:33:48.872Z,13.73
2023-05-22T12:36:17.896Z,13.73
2023-05-22T12:38:46.178Z,14.02
2023-05-22T12:41:13.827Z,14.35
2023-05-22T12:43:41.604Z,14.13
2023-05-22T12:46:09.389Z,14.93
2023-05-22T12:48:40.199Z,12.75
2023-05-22T12:51:09.439Z,13.68
2023-05-22T12:53:38.654Z,12.48
2023-05-22T12:56:06.633Z,14.40
2023-05-22T12:58:34.475Z,12.77
2023-05-22T13:01:02.282Z,13.40
2023-05-22T13:03:29.986Z,12.48
2023-05-22T13:05:57.656Z,12.77
2023-05-22T13:08:25.520Z,13.35
2023-05-22T13:10:54.607Z,13.13
2023-05-22T13:13:22.340Z,11.73
2023-05-22T13:15:50.032Z,13.00
2023-05-22T13:18:17.756Z,12.85
2023-05-22T13:20:46.072Z,13.80
2023-05-22T13:23:13.723Z,13.18
2023-05-22T13:25:42.735Z,12.70
2023-05-22T13:28:11.911Z,14.02
2023-05-22T13:30:40.238Z,13.90
2023-05-22T13:33:08.311Z,14.75
2023-05-22T13:35:36.192Z,12.98
2023-05-22T13:38:04.016Z,14.30
2023-05-22T13:40:31.701Z,14.40
2023-05-22T13:43:00.854Z,13.73
2023-05-22T13:45:29.991Z,13.00
2023-05-22T13:47:57.768Z,13.63
2023-05-22T13:50:25.596Z,13.13
2023-05-22T13:52:53.370Z,13.73
2023-05-22T13:55:21.215Z,12.27
2023-05-22T13:57:48.867Z,12.95
2023-05-22T14:00:16.915Z,13.40
2023-05-22T14:02:46.562Z,13.77
2023-05-22T14:05:14.268Z,12.48
2023-05-22T14:07:41.996Z,13.02
2023-05-22T14:10:11.056Z,13.07
2023-05-22T14:12:38.732Z,13.18
2023-05-22T14:15:06.977Z,11.02
2023-05-22T14:17:34.695Z,13.20
2023-05-22T14:20:07.247Z,10.43
2023-05-22T14:22:47.855Z,11.50
2023-05-22T14:25:22.756Z,10.10
2023-05-22T14:27:50.501Z,10.45
2023-05-22T14:30:18.462Z,11.05
2023-05-22T14:32:46.912Z,11.88
2023-05-22T14:35:16.853Z,12.38
2023-05-22T14:37:44.790Z,11.10
2023-05-22T14:40:12.699Z,10.30
2023-05-22T14:42:41.525Z,11.23
2023-05-22T14:45:23.908Z,10.70
2023-05-22T14:47:51.874Z,11.55
2023-05-22T14:50:21.201Z,9.90
2023-05-22T14:52:49.327Z,11.18
2023-05-22T14:55:17.512Z,11.50
2023-05-22T14:57:45.451Z,11.45
2023-05-22T15:00:15.300Z,11.80
2023-05-22T15:02:43.034Z,11.75
2023-05-22T15:05:11.410Z,11.77
2023-05-22T15:07:44.424Z,12.55
2023-05-22T15:10:13.504Z,11.07
2023-05-22T15:12:41.251Z,11.20
2023-05-22T15:15:09.526Z,11.75
2023-05-22T15:17:37.210Z,11.30
2023-05-22T15:20:05.567Z,11.25
2023-05-22T15:22:33.276Z,11.32
2023-05-22T15:25:06.418Z,10.45
2023-05-22T15:27:34.729Z,11.30
2023-05-22T15:30:02.452Z,11.70
2023-05-22T15:32:30.860Z,11.75
2023-05-22T15:34:58.653Z,10.38
2023-05-22T15:37:26.346Z,10.73
2023-05-22T15:39:54.927Z,9.95
2023-05-22T15:42:23.968Z,11.85
2023-05-22T15:44:51.697Z,11.60
2023-05-22T15:50:36.290Z,11.32
2023-05-22T15:53:04.142Z,12.32
2023-05-22T15:55:33.422Z,10.50
2023-05-22T15:58:06.107Z,12.30
2023-05-22T16:00:38.587Z,11.93
2023-05-22T16:03:08.435Z,12.32
2023-05-22T16:05:36.553Z,11.60
2023-05-22T16:08:04.295Z,11.15
2023-05-22T16:10:32.004Z,13.23
2023-05-22T16:13:00.134Z,13.80
2023-05-22T16:15:29.129Z,11.80
2023-05-22T16:17:56.839Z,12.13
2023-05-22T16:20:24.840Z,11.45
2023-05-22T16:22:52.751Z,12.55
2023-05-22T16:25:20.565Z,10.57
2023-05-22T16:27:48.456Z,11.60
2023-05-22T16:30:17.381Z,15.45
2023-05-22T16:32:47.434Z,10.20
2023-05-22T16:35:15.266Z,13.45
2023-05-22T16:37:43.335Z,15.65
2023-05-22T16:40:11.631Z,13.50
2023-05-22T16:42:40.158Z,15.65
2023-05-22T16:45:08.778Z,13.25
2023-05-22T16:47:36.591Z,13.93
2023-05-22T16:50:06.359Z,15.90
2023-05-22T16:52:34.061Z,16.65
2023-05-22T16:55:02.889Z,16.35
2023-05-22T16:57:30.653Z,14.95
2023-05-22T16:59:58.366Z,16.30
2023-05-22T17:02:26.325Z,18.33
2023-05-22T17:05:09.423Z,17.52
2023-05-22T17:07:38.482Z,18.05
2023-05-22T17:10:06.551Z,17.73
2023-05-22T17:12:34.293Z,17.77
2023-05-22T17:15:08.102Z,18.02
2023-05-22T17:17:36.010Z,19.52
2023-05-22T17:20:06.652Z,19.63
2023-05-22T17:22:36.146Z,19.35
2023-05-22T17:25:06.116Z,17.05
2023-05-22T17:27:36.593Z,17.60
2023-05-22T17:30:06.042Z,16.75
2023-05-22T17:32:34.034Z,17.20
2023-05-22T17:35:02.316Z,15.88
2023-05-22T17:37:30.000Z,17.95
2023-05-22T17:39:57.670Z,18.15
2023-05-22T17:42:27.035Z,15.57
2023-05-22T17:45:13.261Z,16.33
2023-05-22T17:47:41.115Z,15.90
2023-05-22T17:50:11.373Z,13.85
2023-05-22T17:52:39.205Z,16.50
2023-05-22T17:55:08.195Z,15.88
2023-05-22T17:57:37.296Z,15.43
2023-05-22T18:00:09.840Z,16.98
2023-05-22T18:02:37.710Z,14.75
2023-05-22T18:05:06.259Z,14.32
2023-05-22T18:07:34.077Z,13.90
2023-05-22T18:10:10.001Z,16.00
2023-05-22T18:12:39.028Z,13.82
2023-05-22T18:15:14.013Z,13.60
2023-05-22T18:17:41.851Z,15.27
2023-05-22T18:20:11.959Z,14.77
2023-05-22T18:22:40.337Z,15.98
2023-05-22T18:25:10.472Z,13.85
2023-05-22T18:27:39.509Z,13.50
2023-05-22T18:30:07.914Z,14.30
2023-05-22T18:32:35.632Z,15.05
2023-05-22T18:35:28.282Z,14.35
2023-05-22T18:37:55.948Z,13.00
2023-05-22T18:40:26.397Z,14.32
2023-05-22T18:42:55.537Z,13.82
2023-05-22T18:45:26.572Z,11.82
2023-05-22T18:47:54.252Z,12.23
2023-05-22T18:50:23.763Z,13.38
2023-05-22T18:52:51.613Z,12.40
2023-05-22T18:55:22.088Z,12.55
2023-05-22T18:57:52.736Z,10.73
2023-05-22T19:00:21.770Z,10.63
2023-05-22T19:02:49.515Z,10.18
2023-05-22T19:05:33.820Z,12.20
2023-05-22T19:08:01.497Z,9.88
2023-05-22T19:10:29.216Z,8.52
2023-05-22T19:12:57.560Z,9.20
2023-05-22T19:15:26.759Z,9.38
2023-05-22T19:17:54.771Z,8.68
2023-05-22T19:20:23.322Z,10.27
2023-05-22T19:22:51.918Z,9.18
2023-05-22T19:25:22.451Z,8.65
2023-05-22T19:27:50.154Z,9.57
2023-05-22T19:30:19.053Z,9.85
2023-05-22T19:32:49.662Z,9.68
2023-05-22T19:35:17.469Z,11.27
2023-05-22T19:37:56.756Z,10.05
2023-05-22T19:40:24.477Z,11.82
2023-05-22T19:42:53.991Z,8.70
2023-05-22T19:48:34.123Z,14.55
2023-05-22T19:51:02.661Z,11.15
2023-05-22T19:53:31.220Z,12.70
2023-05-22T19:56:00.342Z,13.48
2023-05-22T19:58:32.883Z,13.40
2023-05-22T20:01:00.800Z,15.48
2023-05-22T20:03:28.722Z,16.75
2023-05-22T20:05:58.955Z,17.85
2023-05-22T20:08:26.869Z,16.40
2023-05-22T20:10:57.086Z,14.70
2023-05-22T20:13:24.795Z,16.20
2023-05-22T20:15:59.792Z,15.00
2023-05-22T20:18:27.724Z,14.95
2023-05-22T20:20:56.277Z,16.10
2023-05-22T20:23:25.612Z,14.93
2023-05-22T20:25:55.637Z,16.48
2023-05-22T20:28:23.283Z,14.50
2023-05-22T20:30:51.129Z,15.88
2023-05-22T20:33:19.437Z,16.42
2023-05-22T20:35:50.243Z,14.00
2023-05-22T20:38:20.035Z,15.23
2023-05-22T20:40:49.098Z,14.80
2023-05-22T20:43:18.569Z,15.35
2023-05-22T20:45:46.751Z,15.95
2023-05-22T20:48:14.681Z,14.65
2023-05-22T20:50:42.484Z,14.57
2023-05-22T20:53:10.222Z,14.73
2023-05-22T20:55:38.166Z,14.75
2023-05-22T20:58:07.463Z,15.23
2023-05-22T21:00:35.153Z,14.93
2023-05-22T21:03:02.931Z,15.80
2023-05-22T21:05:30.961Z,15.43
2023-05-22T21:07:59.281Z,14.88
2023-05-22T21:10:26.967Z,16.20
2023-05-22T21:12:54.775Z,15.70
2023-05-22T21:15:23.810Z,17.30
2023-05-22T21:17:51.561Z,20.25
2023-05-22T21:20:19.291Z,16.83
2023-05-22T21:22:48.126Z,18.42
2023-05-22T21:25:15.813Z,17.75
2023-05-22T21:27:43.677Z,20.60
2023-05-22T21:30:13.112Z,20.65
2023-05-22T21:32:42.183Z,21.63
2023-05-22T21:35:10.379Z,22.63
2023-05-22T21:37:40.283Z,23.00
2023-05-22T21:40:08.905Z,19.30
2023-05-22T21:42:45.729Z,16.70
2023-05-22T21:45:14.116Z,20.48
2023-05-22T21:47:43.867Z,18.00
2023-05-22T21:50:12.023Z,17.05
2023-05-22T21:52:39.814Z,18.88
2023-05-22T21:55:08.354Z,18.80
2023-05-22T21:57:36.149Z,18.65
2023-05-22T22:00:03.876Z,18.92
2023-05-22T22:02:31.639Z,21.77
2023-05-22T22:05:00.800Z,17.83
2023-05-22T22:07:28.558Z,19.20
2023-05-22T22:09:56.203Z,18.67
2023-05-22T22:12:23.852Z,17.40
2023-05-22T22:14:51.720Z,17.08
2023-05-22T22:17:23.801Z,16.15
2023-05-22T22:19:53.688Z,15.48
2023-05-22T22:22:22.880Z,14.45
2023-05-22T22:24:50.764Z,15.30
2023-05-22T22:27:19.700Z,17.33
2023-05-22T22:29:47.353Z,16.45
2023-05-22T22:32:15.102Z,16.50
2023-05-22T22:34:43.194Z,16.33
2023-05-22T22:37:11.154Z,16.65
2023-05-22T22:39:40.189Z,15.57
2023-05-22T22:42:08.271Z,16.77
2023-05-22T22:44:36.337Z,16.65
2023-05-22T22:47:04.769Z,17.40
2023-05-22T22:49:32.749Z,16.00
2023-05-22T22:52:00.841Z,18.40
2023-05-22T22:54:28.533Z,18.48
2023-05-22T22:56:57.650Z,20.55
2023-05-22T22:59:25.372Z,14.95
2023-05-22T23:01:53.069Z,17.33
2023-05-22T23:04:21.021Z,18.65
2023-05-22T23:06:48.731Z,16.33
2023-05-22T23:09:16.528Z,17.95
2023-05-22T23:11:44.267Z,20.38
2023-05-22T23:14:13.506Z,18.80
2023-05-22T23:16:42.651Z,22.30
2023-05-22T23:19:13.831Z,18.40
2023-05-22T23:21:41.613Z,17.63
2023-05-22T23:24:10.648Z,20.10
2023-05-22T23:26:38.951Z,18.45
2023-05-22T23:29:06.627Z,20.60
2023-05-22T23:31:36.605Z,24.20
2023-05-22T23:34:04.591Z,20.20
2023-05-22T23:36:32.595Z,21.50
2023-05-22T23:39:00.293Z,21.00
2023-05-22T23:41:28.102Z,20.67
2023-05-22T23:43:55.779Z,19.25
2023-05-22T23:46:26.524Z,17.25
2023-05-22T23:48:55.684Z,19.30
2023-05-22T23:51:23.491Z,21.27
2023-05-22T23:53:51.354Z,20.65
2023-05-22T23:56:19.393Z,18.13
2023-05-22T23:58:47.053Z,21.40
